CFG017 KJFK-EDDF
Flight info
| Callsign | CFG017 |
|---|---|
| Flight time | N/A |
| Altitude | 37000 |
| Route | GREKI DCT JUDDS DCT MARTN DCT CBIRD DCT TAFFY N621A LOMSI/M081F380 DCT 55N050W 56N040W 57N030W 57N020W DCT PIKIL DCT SOVED/N0476F390 DCT LUTOV DCT BELOX L603 DOLAS DCT NAVPI DCT NOLRU DCT DIXAT DIXAT1A |
| Aircraft | A339/H-SADE1E2E3GHIJ3J5M1P2RWXY/LB2D1 |
Departure
| Time | 2026-05-07 10:05 |
|---|---|
| Airport | John F. Kennedy International Airport (KJFK) |
Arrival
| Time | N/A |
|---|---|
| Airport | Frankfurt Main Airport (EDDF) |
| Time | Latitude | Longitude | Altitude | Speed | Heading |
|---|---|---|---|---|---|
| 2026-05-07 08:09 | 40.65116 | -73.78360 | 22 ft | 0 kts | 156° |
| 2026-05-07 08:43 | 40.65116 | -73.78361 | 22 ft | 0 kts | 156° |
| 2026-05-07 08:44 | 40.65116 | -73.78360 | 22 ft | 0 kts | 156° |
| 2026-05-07 08:44 | 40.65116 | -73.78361 | 22 ft | 0 kts | 156° |
| 2026-05-07 08:51 | 40.65117 | -73.78361 | 22 ft | 0 kts | 156° |
| 2026-05-07 09:30 | 40.65118 | -73.78361 | 21 ft | 0 kts | 156° |
| 2026-05-07 09:39 | 40.65118 | -73.78362 | 21 ft | 0 kts | 156° |
| 2026-05-07 09:47 | 40.65122 | -73.78364 | 27 ft | 2 kts | 155° |
| 2026-05-07 09:48 | 40.65136 | -73.78375 | 23 ft | 2 kts | 142° |
| 2026-05-07 09:48 | 40.65159 | -73.78374 | 28 ft | 2 kts | 27° |
| 2026-05-07 09:48 | 40.65140 | -73.78400 | 28 ft | 3 kts | 256° |
| 2026-05-07 09:48 | 40.65149 | -73.78368 | 28 ft | 3 kts | 119° |
| 2026-05-07 09:49 | 40.65154 | -73.78376 | 27 ft | 2 kts | 78° |
| 2026-05-07 09:49 | 40.65150 | -73.78402 | 25 ft | 3 kts | 78° |
| 2026-05-07 09:49 | 40.65141 | -73.78447 | 27 ft | 6 kts | 34° |
| 2026-05-07 09:49 | 40.65136 | -73.78453 | 27 ft | 0 kts | 20° |
| 2026-05-07 09:51 | 40.65137 | -73.78453 | 27 ft | 0 kts | 20° |
| 2026-05-07 09:51 | 40.65160 | -73.78441 | 27 ft | 9 kts | 20° |
| 2026-05-07 09:52 | 40.65230 | -73.78398 | 24 ft | 0 kts | 29° |
| 2026-05-07 09:52 | 40.65232 | -73.78399 | 24 ft | 1 kts | 20° |
| 2026-05-07 09:52 | 40.65252 | -73.78413 | 22 ft | 6 kts | 334° |
| 2026-05-07 09:52 | 40.65267 | -73.78442 | 24 ft | 2 kts | 299° |
| 2026-05-07 09:53 | 40.65258 | -73.78475 | 23 ft | 8 kts | 256° |
| 2026-05-07 09:53 | 40.65217 | -73.78580 | 29 ft | 17 kts | 242° |
| 2026-05-07 09:53 | 40.65148 | -73.78762 | 23 ft | 25 kts | 252° |
| 2026-05-07 09:53 | 40.65149 | -73.78979 | 21 ft | 23 kts | 283° |
| 2026-05-07 09:54 | 40.65195 | -73.79164 | 24 ft | 20 kts | 288° |
| 2026-05-07 09:54 | 40.65209 | -73.79274 | 21 ft | 7 kts | 263° |
| 2026-05-07 09:54 | 40.65192 | -73.79341 | 26 ft | 10 kts | 250° |
| 2026-05-07 09:54 | 40.65141 | -73.79457 | 23 ft | 19 kts | 240° |
| 2026-05-07 09:55 | 40.65067 | -73.79631 | 22 ft | 23 kts | 237° |
| 2026-05-07 09:55 | 40.64930 | -73.79700 | 22 ft | 21 kts | 180° |
| 2026-05-07 09:55 | 40.64787 | -73.79687 | 21 ft | 20 kts | 158° |
| 2026-05-07 09:55 | 40.64668 | -73.79589 | 21 ft | 20 kts | 145° |
| 2026-05-07 09:56 | 40.64544 | -73.79510 | 25 ft | 20 kts | 169° |
| 2026-05-07 09:56 | 40.64409 | -73.79491 | 23 ft | 19 kts | 176° |
| 2026-05-07 09:56 | 40.64275 | -73.79498 | 23 ft | 19 kts | 182° |
| 2026-05-07 09:56 | 40.64144 | -73.79506 | 23 ft | 19 kts | 181° |
| 2026-05-07 09:57 | 40.64038 | -73.79425 | 25 ft | 18 kts | 126° |
| 2026-05-07 09:57 | 40.63973 | -73.79283 | 23 ft | 18 kts | 121° |
| 2026-05-07 09:57 | 40.63907 | -73.79141 | 23 ft | 18 kts | 121° |
| 2026-05-07 09:57 | 40.63841 | -73.78999 | 25 ft | 18 kts | 121° |
| 2026-05-07 09:58 | 40.63777 | -73.78856 | 24 ft | 18 kts | 121° |
| 2026-05-07 09:58 | 40.63712 | -73.78715 | 25 ft | 18 kts | 121° |
| 2026-05-07 09:58 | 40.63648 | -73.78575 | 23 ft | 18 kts | 121° |
| 2026-05-07 09:58 | 40.63583 | -73.78436 | 23 ft | 18 kts | 120° |
| 2026-05-07 09:59 | 40.63523 | -73.78293 | 26 ft | 18 kts | 119° |
| 2026-05-07 09:59 | 40.63461 | -73.78151 | 25 ft | 18 kts | 120° |
| 2026-05-07 09:59 | 40.63398 | -73.78010 | 23 ft | 18 kts | 120° |
| 2026-05-07 09:59 | 40.63336 | -73.77869 | 27 ft | 18 kts | 120° |
| 2026-05-07 10:00 | 40.63280 | -73.77742 | 27 ft | 15 kts | 120° |
| 2026-05-07 10:00 | 40.63227 | -73.77625 | 27 ft | 16 kts | 122° |
| 2026-05-07 10:00 | 40.63164 | -73.77487 | 25 ft | 18 kts | 120° |
| 2026-05-07 10:00 | 40.63101 | -73.77345 | 23 ft | 18 kts | 120° |
| 2026-05-07 10:01 | 40.63036 | -73.77203 | 24 ft | 18 kts | 121° |
| 2026-05-07 10:01 | 40.62996 | -73.77116 | 23 ft | 0 kts | 121° |
| 2026-05-07 10:01 | 40.62995 | -73.77112 | 23 ft | 3 kts | 121° |
| 2026-05-07 10:01 | 40.62969 | -73.77092 | 24 ft | 5 kts | 158° |
| 2026-05-07 10:02 | 40.62926 | -73.77107 | 26 ft | 9 kts | 214° |
| 2026-05-07 10:02 | 40.62837 | -73.77176 | 22 ft | 19 kts | 219° |
| 2026-05-07 10:02 | 40.62840 | -73.77270 | 25 ft | 8 kts | 304° |
| 2026-05-07 10:02 | 40.62867 | -73.77326 | 23 ft | 7 kts | 302° |
| 2026-05-07 10:03 | 40.62890 | -73.77375 | 24 ft | 6 kts | 302° |
| 2026-05-07 10:03 | 40.62909 | -73.77416 | 23 ft | 5 kts | 302° |
| 2026-05-07 10:03 | 40.62923 | -73.77448 | 23 ft | 4 kts | 301° |
| 2026-05-07 10:03 | 40.62934 | -73.77471 | 23 ft | 3 kts | 301° |
| 2026-05-07 10:04 | 40.62964 | -73.77543 | 25 ft | 20 kts | 299° |
| 2026-05-07 10:04 | 40.63084 | -73.77809 | 31 ft | 54 kts | 301° |
| 2026-05-07 10:04 | 40.63400 | -73.78503 | 26 ft | 120 kts | 301° |
| 2026-05-07 10:04 | 40.63923 | -73.79652 | 61 ft | 165 kts | 302° |
| 2026-05-07 10:05 | 40.64527 | -73.81008 | 519 ft | 176 kts | 301° |
| 2026-05-07 10:05 | 40.65129 | -73.82473 | 1069 ft | 189 kts | 301° |
| 2026-05-07 10:05 | 40.65780 | -73.84011 | 1830 ft | 192 kts | 304° |
| 2026-05-07 10:05 | 40.66474 | -73.85550 | 2498 ft | 202 kts | 303° |
| 2026-05-07 10:06 | 40.67230 | -73.87208 | 2973 ft | 220 kts | 303° |
| 2026-05-07 10:06 | 40.68063 | -73.89006 | 3313 ft | 237 kts | 302° |
| 2026-05-07 10:06 | 40.68932 | -73.90889 | 3818 ft | 243 kts | 301° |
| 2026-05-07 10:06 | 40.69813 | -73.92797 | 4379 ft | 246 kts | 300° |
| 2026-05-07 10:07 | 40.70701 | -73.94717 | 5057 ft | 244 kts | 299° |
| 2026-05-07 10:07 | 40.71763 | -73.96454 | 5671 ft | 251 kts | 316° |
| 2026-05-07 10:07 | 40.73379 | -73.97479 | 6286 ft | 264 kts | 335° |
| 2026-05-07 10:07 | 40.75150 | -73.98137 | 6731 ft | 275 kts | 341° |
| 2026-05-07 10:08 | 40.77148 | -73.98047 | 7257 ft | 296 kts | 7° |
| 2026-05-07 10:08 | 40.79068 | -73.96975 | 7677 ft | 314 kts | 26° |
| 2026-05-07 10:08 | 40.80891 | -73.95309 | 8207 ft | 320 kts | 31° |
| 2026-05-07 10:08 | 40.82657 | -73.93459 | 8724 ft | 328 kts | 37° |
| 2026-05-07 10:09 | 40.84386 | -73.91462 | 9251 ft | 333 kts | 38° |
| 2026-05-07 10:09 | 40.86157 | -73.89437 | 9716 ft | 339 kts | 37° |
| 2026-05-07 10:09 | 40.87991 | -73.87442 | 10212 ft | 344 kts | 36° |
| 2026-05-07 10:09 | 40.89895 | -73.85403 | 10395 ft | 360 kts | 36° |
| 2026-05-07 10:10 | 40.91882 | -73.83296 | 10563 ft | 376 kts | 35° |
| 2026-05-07 10:10 | 40.93967 | -73.81089 | 10727 ft | 390 kts | 36° |
| 2026-05-07 10:10 | 40.96103 | -73.78831 | 11150 ft | 396 kts | 36° |
| 2026-05-07 10:10 | 40.98271 | -73.76541 | 11639 ft | 400 kts | 35° |
| 2026-05-07 10:11 | 41.00450 | -73.74236 | 12126 ft | 403 kts | 35° |
| 2026-05-07 10:11 | 41.02530 | -73.72046 | 12589 ft | 406 kts | 35° |
| 2026-05-07 10:11 | 41.04745 | -73.69722 | 13074 ft | 410 kts | 35° |
| 2026-05-07 10:11 | 41.06993 | -73.67365 | 13547 ft | 414 kts | 35° |
| 2026-05-07 10:12 | 41.09263 | -73.64985 | 13992 ft | 418 kts | 35° |
| 2026-05-07 10:12 | 41.11515 | -73.62613 | 14444 ft | 420 kts | 35° |
| 2026-05-07 10:12 | 41.13805 | -73.60186 | 14884 ft | 423 kts | 35° |
| 2026-05-07 10:12 | 41.16110 | -73.57728 | 15327 ft | 427 kts | 35° |
| 2026-05-07 10:13 | 41.18412 | -73.55256 | 15776 ft | 429 kts | 35° |
| 2026-05-07 10:13 | 41.20751 | -73.52730 | 16245 ft | 432 kts | 35° |
| 2026-05-07 10:13 | 41.23070 | -73.50209 | 16686 ft | 435 kts | 35° |
| 2026-05-07 10:13 | 41.25420 | -73.47642 | 17129 ft | 438 kts | 35° |
| 2026-05-07 10:14 | 41.27781 | -73.45046 | 17580 ft | 441 kts | 35° |
| 2026-05-07 10:14 | 41.30150 | -73.42460 | 18040 ft | 442 kts | 33° |
| 2026-05-07 10:14 | 41.32572 | -73.39930 | 18433 ft | 445 kts | 33° |
| 2026-05-07 10:14 | 41.35014 | -73.37363 | 18794 ft | 449 kts | 33° |
| 2026-05-07 10:15 | 41.37473 | -73.34769 | 19163 ft | 452 kts | 33° |
| 2026-05-07 10:15 | 41.39946 | -73.32147 | 19551 ft | 455 kts | 33° |
| 2026-05-07 10:15 | 41.42429 | -73.29503 | 19899 ft | 459 kts | 33° |
| 2026-05-07 10:15 | 41.44897 | -73.26867 | 20291 ft | 461 kts | 33° |
| 2026-05-07 10:16 | 41.47404 | -73.24175 | 20652 ft | 465 kts | 33° |
| 2026-05-07 10:16 | 41.49934 | -73.21452 | 21067 ft | 467 kts | 33° |
| 2026-05-07 10:16 | 41.52467 | -73.18716 | 21442 ft | 471 kts | 33° |
| 2026-05-07 10:16 | 41.55016 | -73.15955 | 21836 ft | 474 kts | 33° |
| 2026-05-07 10:17 | 41.57586 | -73.13161 | 22219 ft | 477 kts | 33° |
| 2026-05-07 10:17 | 41.60180 | -73.10360 | 22621 ft | 478 kts | 31° |
| 2026-05-07 10:17 | 41.62972 | -73.08036 | 22954 ft | 468 kts | 16° |
| 2026-05-07 10:17 | 41.65999 | -73.06650 | 23343 ft | 453 kts | 1° |
| 2026-05-07 10:18 | 41.69076 | -73.06140 | 23707 ft | 443 kts | 353° |
| 2026-05-07 10:18 | 41.72153 | -73.05807 | 24087 ft | 445 kts | 353° |
| 2026-05-07 10:18 | 41.74197 | -73.05584 | 24312 ft | 447 kts | 353° |
| 2026-05-07 10:18 | 41.78352 | -73.05118 | 24806 ft | 449 kts | 353° |
| 2026-05-07 10:19 | 41.81451 | -73.04761 | 25147 ft | 452 kts | 353° |
| 2026-05-07 10:19 | 41.83569 | -73.04516 | 25380 ft | 453 kts | 353° |
| 2026-05-07 10:19 | 41.87698 | -73.04354 | 25836 ft | 440 kts | 342° |
| 2026-05-07 10:19 | 41.89735 | -73.04649 | 26046 ft | 436 kts | 340° |
| 2026-05-07 10:20 | 41.92764 | -73.05145 | 26413 ft | 438 kts | 340° |
| 2026-05-07 10:20 | 41.95801 | -73.05637 | 26768 ft | 440 kts | 340° |
| 2026-05-07 10:20 | 41.98838 | -73.06034 | 27084 ft | 446 kts | 341° |
| 2026-05-07 10:20 | 42.01943 | -73.06388 | 27418 ft | 448 kts | 342° |
| 2026-05-07 10:21 | 42.05060 | -73.06732 | 27702 ft | 450 kts | 342° |
| 2026-05-07 10:21 | 42.08177 | -73.07139 | 27971 ft | 448 kts | 339° |
| 2026-05-07 10:21 | 42.11243 | -73.07747 | 28373 ft | 444 kts | 337° |
| 2026-05-07 10:21 | 42.14295 | -73.08419 | 28649 ft | 447 kts | 336° |
| 2026-05-07 10:22 | 42.17377 | -73.09093 | 28929 ft | 449 kts | 336° |
| 2026-05-07 10:22 | 42.20464 | -73.09769 | 29288 ft | 450 kts | 336° |
| 2026-05-07 10:22 | 42.23567 | -73.10447 | 29598 ft | 452 kts | 336° |
| 2026-05-07 10:22 | 42.26682 | -73.11122 | 29917 ft | 454 kts | 336° |
| 2026-05-07 10:23 | 42.29806 | -73.11794 | 30199 ft | 456 kts | 336° |
| 2026-05-07 10:23 | 42.32933 | -73.12466 | 30509 ft | 456 kts | 337° |
| 2026-05-07 10:23 | 42.36091 | -73.13150 | 30809 ft | 458 kts | 336° |
| 2026-05-07 10:23 | 42.39321 | -73.13518 | 31082 ft | 478 kts | 347° |
| 2026-05-07 10:24 | 42.42673 | -73.13263 | 31361 ft | 487 kts | 351° |
| 2026-05-07 10:24 | 42.46068 | -73.12923 | 31627 ft | 489 kts | 351° |
| 2026-05-07 10:24 | 42.49454 | -73.12589 | 31926 ft | 490 kts | 351° |
| 2026-05-07 10:24 | 42.52868 | -73.12252 | 32212 ft | 491 kts | 351° |
| 2026-05-07 10:25 | 42.56241 | -73.11916 | 32481 ft | 493 kts | 351° |
| 2026-05-07 10:25 | 42.59662 | -73.11579 | 32720 ft | 493 kts | 351° |
| 2026-05-07 10:25 | 42.63088 | -73.11251 | 32930 ft | 494 kts | 351° |
| 2026-05-07 10:25 | 42.66520 | -73.10923 | 33104 ft | 495 kts | 351° |
| 2026-05-07 10:26 | 42.69972 | -73.10594 | 33258 ft | 496 kts | 351° |
| 2026-05-07 10:26 | 42.73418 | -73.10270 | 33418 ft | 496 kts | 351° |
| 2026-05-07 10:26 | 42.76873 | -73.09818 | 33647 ft | 502 kts | 355° |
| 2026-05-07 10:26 | 42.80350 | -73.08933 | 33766 ft | 516 kts | 2° |
| 2026-05-07 10:27 | 42.83831 | -73.07527 | 33838 ft | 525 kts | 7° |
| 2026-05-07 10:27 | 42.87244 | -73.05519 | 33961 ft | 543 kts | 19° |
| 2026-05-07 10:27 | 42.90444 | -73.02698 | 34175 ft | 555 kts | 30° |
| 2026-05-07 10:27 | 42.93374 | -72.99235 | 34370 ft | 560 kts | 35° |
| 2026-05-07 10:28 | 42.96205 | -72.95550 | 34562 ft | 560 kts | 37° |
| 2026-05-07 10:28 | 42.99002 | -72.91864 | 34895 ft | 556 kts | 37° |
| 2026-05-07 10:28 | 43.01755 | -72.88250 | 35003 ft | 557 kts | 37° |
| 2026-05-07 10:28 | 43.04595 | -72.84645 | 35114 ft | 555 kts | 34° |
| 2026-05-07 10:29 | 43.07488 | -72.81165 | 35260 ft | 554 kts | 33° |
| 2026-05-07 10:29 | 43.10389 | -72.77699 | 35443 ft | 552 kts | 33° |
| 2026-05-07 10:29 | 43.13265 | -72.74272 | 35623 ft | 551 kts | 33° |
| 2026-05-07 10:30 | 43.18762 | -72.67737 | 35925 ft | 549 kts | 33° |
| 2026-05-07 10:30 | 43.21645 | -72.64313 | 36108 ft | 547 kts | 33° |